sensor_id;sensor_type;location;lat;lon;timestamp;P1;durP1;ratioP1;P2;durP2;ratioP2
51862;SDS011;37900;52.996;6.278;2023-08-21T00:00:08;1.85;;;0.93;;
51862;SDS011;37900;52.996;6.278;2023-08-21T00:02:35;2.15;;;1.33;;
51862;SDS011;37900;52.996;6.278;2023-08-21T00:05:00;1.90;;;1.10;;
51862;SDS011;37900;52.996;6.278;2023-08-21T00:07:26;1.05;;;0.80;;
51862;SDS011;37900;52.996;6.278;2023-08-21T00:09:52;1.63;;;0.90;;
51862;SDS011;37900;52.996;6.278;2023-08-21T00:12:17;4.38;;;1.50;;
51862;SDS011;37900;52.996;6.278;2023-08-21T00:14:43;1.52;;;1.00;;
51862;SDS011;37900;52.996;6.278;2023-08-21T00:17:09;2.30;;;1.30;;
51862;SDS011;37900;52.996;6.278;2023-08-21T00:19:35;1.70;;;1.20;;
51862;SDS011;37900;52.996;6.278;2023-08-21T00:22:00;1.63;;;1.00;;
51862;SDS011;37900;52.996;6.278;2023-08-21T00:24:26;1.55;;;0.90;;
51862;SDS011;37900;52.996;6.278;2023-08-21T00:26:52;1.33;;;0.90;;
51862;SDS011;37900;52.996;6.278;2023-08-21T00:29:18;1.10;;;1.00;;
51862;SDS011;37900;52.996;6.278;2023-08-21T00:31:43;2.40;;;1.00;;
51862;SDS011;37900;52.996;6.278;2023-08-21T00:34:09;2.58;;;1.00;;
51862;SDS011;37900;52.996;6.278;2023-08-21T00:36:36;1.98;;;1.00;;
51862;SDS011;37900;52.996;6.278;2023-08-21T00:39:02;1.38;;;0.90;;
51862;SDS011;37900;52.996;6.278;2023-08-21T00:41:27;1.48;;;0.90;;
51862;SDS011;37900;52.996;6.278;2023-08-21T00:43:53;1.02;;;0.93;;
51862;SDS011;37900;52.996;6.278;2023-08-21T00:46:19;1.48;;;0.93;;
51862;SDS011;37900;52.996;6.278;2023-08-21T00:48:45;3.38;;;1.17;;
51862;SDS011;37900;52.996;6.278;2023-08-21T00:51:11;1.65;;;1.00;;
51862;SDS011;37900;52.996;6.278;2023-08-21T00:53:39;1.58;;;1.10;;
51862;SDS011;37900;52.996;6.278;2023-08-21T00:56:05;1.55;;;0.98;;
51862;SDS011;37900;52.996;6.278;2023-08-21T00:58:30;1.60;;;1.00;;
51862;SDS011;37900;52.996;6.278;2023-08-21T01:00:57;2.03;;;1.35;;
51862;SDS011;37900;52.996;6.278;2023-08-21T01:03:23;1.27;;;0.90;;
51862;SDS011;37900;52.996;6.278;2023-08-21T01:05:49;0.57;;;0.57;;
51862;SDS011;37900;52.996;6.278;2023-08-21T01:11:14;2.35;;;0.95;;
51862;SDS011;37900;52.996;6.278;2023-08-21T01:16:16;1.35;;;0.98;;
51862;SDS011;37900;52.996;6.278;2023-08-21T01:18:44;2.25;;;1.08;;
51862;SDS011;37900;52.996;6.278;2023-08-21T01:21:14;1.45;;;1.02;;
51862;SDS011;37900;52.996;6.278;2023-08-21T01:23:40;0.82;;;0.80;;
51862;SDS011;37900;52.996;6.278;2023-08-21T01:26:09;1.30;;;0.80;;
51862;SDS011;37900;52.996;6.278;2023-08-21T01:28:35;1.20;;;0.90;;
51862;SDS011;37900;52.996;6.278;2023-08-21T01:33:38;1.23;;;0.77;;
51862;SDS011;37900;52.996;6.278;2023-08-21T01:36:09;1.90;;;1.00;;
51862;SDS011;37900;52.996;6.278;2023-08-21T01:38:36;3.08;;;1.00;;
51862;SDS011;37900;52.996;6.278;2023-08-21T01:41:02;1.58;;;0.98;;
51862;SDS011;37900;52.996;6.278;2023-08-21T01:43:28;1.27;;;0.90;;
51862;SDS011;37900;52.996;6.278;2023-08-21T01:45:54;1.90;;;1.00;;
51862;SDS011;37900;52.996;6.278;2023-08-21T01:48:20;0.70;;;0.70;;
51862;SDS011;37900;52.996;6.278;2023-08-21T01:50:45;1.25;;;0.82;;
51862;SDS011;37900;52.996;6.278;2023-08-21T01:53:11;1.15;;;0.70;;
51862;SDS011;37900;52.996;6.278;2023-08-21T01:55:37;1.15;;;0.90;;
51862;SDS011;37900;52.996;6.278;2023-08-21T01:58:02;1.35;;;0.90;;
51862;SDS011;37900;52.996;6.278;2023-08-21T02:00:28;1.88;;;0.98;;
51862;SDS011;37900;52.996;6.278;2023-08-21T02:02:54;1.00;;;0.75;;
51862;SDS011;37900;52.996;6.278;2023-08-21T02:05:20;0.98;;;0.82;;
51862;SDS011;37900;52.996;6.278;2023-08-21T02:07:45;1.25;;;0.80;;
51862;SDS011;37900;52.996;6.278;2023-08-21T02:10:11;1.80;;;0.98;;
51862;SDS011;37900;52.996;6.278;2023-08-21T02:12:36;1.80;;;0.95;;
51862;SDS011;37900;52.996;6.278;2023-08-21T02:15:02;1.02;;;0.68;;
51862;SDS011;37900;52.996;6.278;2023-08-21T02:17:29;1.42;;;1.10;;
51862;SDS011;37900;52.996;6.278;2023-08-21T02:19:55;1.30;;;0.98;;
51862;SDS011;37900;52.996;6.278;2023-08-21T02:22:20;0.80;;;0.68;;
51862;SDS011;37900;52.996;6.278;2023-08-21T02:24:46;1.73;;;0.80;;
51862;SDS011;37900;52.996;6.278;2023-08-21T02:27:12;0.93;;;0.70;;
51862;SDS011;37900;52.996;6.278;2023-08-21T02:29:38;1.20;;;0.75;;
51862;SDS011;37900;52.996;6.278;2023-08-21T02:32:03;2.50;;;0.90;;
51862;SDS011;37900;52.996;6.278;2023-08-21T02:34:29;1.20;;;1.10;;
51862;SDS011;37900;52.996;6.278;2023-08-21T02:36:55;1.45;;;0.98;;
51862;SDS011;37900;52.996;6.278;2023-08-21T02:39:20;1.13;;;0.80;;
51862;SDS011;37900;52.996;6.278;2023-08-21T02:41:46;1.25;;;0.55;;
51862;SDS011;37900;52.996;6.278;2023-08-21T02:44:12;2.38;;;0.82;;
51862;SDS011;37900;52.996;6.278;2023-08-21T02:46:37;1.10;;;0.88;;
51862;SDS011;37900;52.996;6.278;2023-08-21T02:49:03;1.10;;;0.80;;
51862;SDS011;37900;52.996;6.278;2023-08-21T02:51:29;0.85;;;0.80;;
51862;SDS011;37900;52.996;6.278;2023-08-21T02:53:55;1.05;;;0.90;;
51862;SDS011;37900;52.996;6.278;2023-08-21T02:56:20;1.10;;;0.98;;
51862;SDS011;37900;52.996;6.278;2023-08-21T02:58:46;1.52;;;0.90;;
51862;SDS011;37900;52.996;6.278;2023-08-21T03:01:12;0.88;;;0.70;;
51862;SDS011;37900;52.996;6.278;2023-08-21T03:03:37;1.02;;;0.75;;
51862;SDS011;37900;52.996;6.278;2023-08-21T03:06:03;1.27;;;0.75;;
51862;SDS011;37900;52.996;6.278;2023-08-21T03:08:29;1.38;;;1.13;;
51862;SDS011;37900;52.996;6.278;2023-08-21T03:10:54;1.42;;;0.75;;
51862;SDS011;37900;52.996;6.278;2023-08-21T03:13:20;1.25;;;0.80;;
51862;SDS011;37900;52.996;6.278;2023-08-21T03:15:45;0.80;;;0.80;;
51862;SDS011;37900;52.996;6.278;2023-08-21T03:18:11;1.02;;;0.82;;
51862;SDS011;37900;52.996;6.278;2023-08-21T03:20:37;0.85;;;0.70;;
51862;SDS011;37900;52.996;6.278;2023-08-21T03:23:02;1.08;;;0.95;;
51862;SDS011;37900;52.996;6.278;2023-08-21T03:25:28;2.33;;;0.95;;
51862;SDS011;37900;52.996;6.278;2023-08-21T03:27:54;0.95;;;0.88;;
51862;SDS011;37900;52.996;6.278;2023-08-21T03:30:19;1.15;;;1.00;;
51862;SDS011;37900;52.996;6.278;2023-08-21T03:32:46;1.25;;;0.80;;
51862;SDS011;37900;52.996;6.278;2023-08-21T03:35:12;2.20;;;1.00;;
51862;SDS011;37900;52.996;6.278;2023-08-21T03:37:37;1.02;;;0.80;;
51862;SDS011;37900;52.996;6.278;2023-08-21T03:40:03;1.17;;;0.90;;
51862;SDS011;37900;52.996;6.278;2023-08-21T03:42:29;1.17;;;1.02;;
51862;SDS011;37900;52.996;6.278;2023-08-21T03:44:55;0.60;;;0.60;;
51862;SDS011;37900;52.996;6.278;2023-08-21T03:47:20;1.02;;;0.90;;
51862;SDS011;37900;52.996;6.278;2023-08-21T03:49:46;0.88;;;0.70;;
51862;SDS011;37900;52.996;6.278;2023-08-21T03:52:13;0.75;;;0.60;;
51862;SDS011;37900;52.996;6.278;2023-08-21T03:54:39;0.95;;;0.80;;
51862;SDS011;37900;52.996;6.278;2023-08-21T03:57:05;1.38;;;0.82;;
51862;SDS011;37900;52.996;6.278;2023-08-21T03:59:31;1.38;;;0.65;;
51862;SDS011;37900;52.996;6.278;2023-08-21T04:01:56;1.02;;;0.50;;
51862;SDS011;37900;52.996;6.278;2023-08-21T04:04:22;1.00;;;0.85;;
51862;SDS011;37900;52.996;6.278;2023-08-21T04:06:48;1.60;;;0.90;;
51862;SDS011;37900;52.996;6.278;2023-08-21T04:09:13;0.95;;;0.85;;
51862;SDS011;37900;52.996;6.278;2023-08-21T04:11:39;0.80;;;0.80;;
51862;SDS011;37900;52.996;6.278;2023-08-21T04:14:06;0.50;;;0.50;;
51862;SDS011;37900;52.996;6.278;2023-08-21T04:16:31;0.68;;;0.65;;
51862;SDS011;37900;52.996;6.278;2023-08-21T04:18:57;0.73;;;0.60;;
51862;SDS011;37900;52.996;6.278;2023-08-21T04:21:23;0.80;;;0.67;;
51862;SDS011;37900;52.996;6.278;2023-08-21T04:23:49;1.27;;;0.60;;
51862;SDS011;37900;52.996;6.278;2023-08-21T04:26:15;1.20;;;0.80;;
51862;SDS011;37900;52.996;6.278;2023-08-21T04:28:41;1.20;;;0.85;;
51862;SDS011;37900;52.996;6.278;2023-08-21T04:31:07;2.00;;;0.73;;
51862;SDS011;37900;52.996;6.278;2023-08-21T04:33:33;0.60;;;0.60;;
51862;SDS011;37900;52.996;6.278;2023-08-21T04:35:59;1.38;;;0.93;;
51862;SDS011;37900;52.996;6.278;2023-08-21T04:38:25;1.03;;;0.93;;
51862;SDS011;37900;52.996;6.278;2023-08-21T04:40:51;0.90;;;0.90;;
51862;SDS011;37900;52.996;6.278;2023-08-21T04:43:17;1.25;;;0.77;;
51862;SDS011;37900;52.996;6.278;2023-08-21T04:45:52;1.63;;;0.90;;
51862;SDS011;37900;52.996;6.278;2023-08-21T04:48:20;1.30;;;0.80;;
51862;SDS011;37900;52.996;6.278;2023-08-21T04:50:46;1.30;;;0.70;;
51862;SDS011;37900;52.996;6.278;2023-08-21T04:53:12;1.80;;;0.65;;
51862;SDS011;37900;52.996;6.278;2023-08-21T04:55:39;2.38;;;1.02;;
51862;SDS011;37900;52.996;6.278;2023-08-21T04:58:08;0.43;;;0.43;;
51862;SDS011;37900;52.996;6.278;2023-08-21T05:00:34;0.77;;;0.60;;
51862;SDS011;37900;52.996;6.278;2023-08-21T05:03:00;0.75;;;0.70;;
51862;SDS011;37900;52.996;6.278;2023-08-21T05:05:26;0.93;;;0.68;;
51862;SDS011;37900;52.996;6.278;2023-08-21T05:07:53;0.90;;;0.70;;
51862;SDS011;37900;52.996;6.278;2023-08-21T05:10:19;0.80;;;0.70;;
51862;SDS011;37900;52.996;6.278;2023-08-21T05:12:45;1.75;;;1.02;;
51862;SDS011;37900;52.996;6.278;2023-08-21T05:15:11;1.00;;;0.70;;
51862;SDS011;37900;52.996;6.278;2023-08-21T05:17:37;1.40;;;0.80;;
51862;SDS011;37900;52.996;6.278;2023-08-21T05:20:03;0.57;;;0.57;;
51862;SDS011;37900;52.996;6.278;2023-08-21T05:22:29;1.10;;;0.70;;
51862;SDS011;37900;52.996;6.278;2023-08-21T05:24:54;1.23;;;0.60;;
51862;SDS011;37900;52.996;6.278;2023-08-21T05:27:20;1.10;;;0.65;;
51862;SDS011;37900;52.996;6.278;2023-08-21T05:29:46;0.70;;;0.70;;
51862;SDS011;37900;52.996;6.278;2023-08-21T05:32:12;1.02;;;0.50;;
51862;SDS011;37900;52.996;6.278;2023-08-21T05:34:38;0.80;;;0.80;;
51862;SDS011;37900;52.996;6.278;2023-08-21T05:37:03;0.80;;;0.80;;
51862;SDS011;37900;52.996;6.278;2023-08-21T05:39:29;0.80;;;0.70;;
51862;SDS011;37900;52.996;6.278;2023-08-21T05:41:55;0.75;;;0.52;;
51862;SDS011;37900;52.996;6.278;2023-08-21T05:44:20;0.80;;;0.60;;
51862;SDS011;37900;52.996;6.278;2023-08-21T05:46:46;0.60;;;0.60;;
51862;SDS011;37900;52.996;6.278;2023-08-21T05:49:12;0.70;;;0.60;;
51862;SDS011;37900;52.996;6.278;2023-08-21T05:51:38;0.50;;;0.50;;
51862;SDS011;37900;52.996;6.278;2023-08-21T05:54:03;0.88;;;0.70;;
51862;SDS011;37900;52.996;6.278;2023-08-21T05:56:29;0.93;;;0.65;;
51862;SDS011;37900;52.996;6.278;2023-08-21T05:58:55;1.00;;;0.88;;
51862;SDS011;37900;52.996;6.278;2023-08-21T06:01:21;0.70;;;0.70;;
51862;SDS011;37900;52.996;6.278;2023-08-21T06:03:46;0.60;;;0.57;;
51862;SDS011;37900;52.996;6.278;2023-08-21T06:06:12;0.65;;;0.63;;
51862;SDS011;37900;52.996;6.278;2023-08-21T06:08:38;0.57;;;0.55;;
51862;SDS011;37900;52.996;6.278;2023-08-21T06:11:03;1.45;;;0.70;;
51862;SDS011;37900;52.996;6.278;2023-08-21T06:13:30;0.80;;;0.60;;
51862;SDS011;37900;52.996;6.278;2023-08-21T06:15:56;0.90;;;0.57;;
51862;SDS011;37900;52.996;6.278;2023-08-21T06:18:21;1.08;;;0.70;;
51862;SDS011;37900;52.996;6.278;2023-08-21T06:20:48;0.63;;;0.60;;
51862;SDS011;37900;52.996;6.278;2023-08-21T06:23:18;0.40;;;0.40;;
51862;SDS011;37900;52.996;6.278;2023-08-21T06:25:44;0.75;;;0.60;;
51862;SDS011;37900;52.996;6.278;2023-08-21T06:28:12;0.50;;;0.50;;
51862;SDS011;37900;52.996;6.278;2023-08-21T06:30:37;1.13;;;0.82;;
51862;SDS011;37900;52.996;6.278;2023-08-21T06:33:03;0.80;;;0.80;;
51862;SDS011;37900;52.996;6.278;2023-08-21T06:35:29;0.65;;;0.60;;
51862;SDS011;37900;52.996;6.278;2023-08-21T06:37:55;0.85;;;0.73;;
51862;SDS011;37900;52.996;6.278;2023-08-21T06:40:20;1.25;;;0.80;;
51862;SDS011;37900;52.996;6.278;2023-08-21T06:42:46;0.63;;;0.57;;
51862;SDS011;37900;52.996;6.278;2023-08-21T06:45:14;2.17;;;0.88;;
51862;SDS011;37900;52.996;6.278;2023-08-21T06:47:40;0.68;;;0.68;;
51862;SDS011;37900;52.996;6.278;2023-08-21T06:50:06;1.75;;;0.70;;
51862;SDS011;37900;52.996;6.278;2023-08-21T06:52:31;0.70;;;0.60;;
51862;SDS011;37900;52.996;6.278;2023-08-21T06:54:57;1.45;;;1.00;;
51862;SDS011;37900;52.996;6.278;2023-08-21T06:57:23;0.80;;;0.60;;
51862;SDS011;37900;52.996;6.278;2023-08-21T06:59:48;1.08;;;0.70;;
51862;SDS011;37900;52.996;6.278;2023-08-21T07:02:14;0.55;;;0.47;;
51862;SDS011;37900;52.996;6.278;2023-08-21T07:04:40;0.40;;;0.40;;
51862;SDS011;37900;52.996;6.278;2023-08-21T07:07:05;1.00;;;0.90;;
51862;SDS011;37900;52.996;6.278;2023-08-21T07:09:31;0.60;;;0.60;;
51862;SDS011;37900;52.996;6.278;2023-08-21T07:11:57;0.88;;;0.75;;
51862;SDS011;37900;52.996;6.278;2023-08-21T07:14:22;1.45;;;0.93;;
51862;SDS011;37900;52.996;6.278;2023-08-21T07:16:48;1.30;;;0.70;;
51862;SDS011;37900;52.996;6.278;2023-08-21T07:19:14;0.90;;;0.68;;
51862;SDS011;37900;52.996;6.278;2023-08-21T07:21:39;1.77;;;0.60;;
51862;SDS011;37900;52.996;6.278;2023-08-21T07:24:05;0.70;;;0.60;;
51862;SDS011;37900;52.996;6.278;2023-08-21T07:26:31;2.13;;;0.80;;
51862;SDS011;37900;52.996;6.278;2023-08-21T07:28:57;1.23;;;0.85;;
51862;SDS011;37900;52.996;6.278;2023-08-21T07:31:23;1.48;;;1.08;;
51862;SDS011;37900;52.996;6.278;2023-08-21T07:33:48;1.52;;;0.98;;
51862;SDS011;37900;52.996;6.278;2023-08-21T07:36:14;0.95;;;0.80;;
51862;SDS011;37900;52.996;6.278;2023-08-21T07:38:42;0.88;;;0.80;;
51862;SDS011;37900;52.996;6.278;2023-08-21T07:41:09;0.93;;;0.65;;
51862;SDS011;37900;52.996;6.278;2023-08-21T07:43:37;2.80;;;1.65;;
51862;SDS011;37900;52.996;6.278;2023-08-21T07:46:03;1.80;;;1.17;;
51862;SDS011;37900;52.996;6.278;2023-08-21T07:48:30;2.65;;;1.77;;
51862;SDS011;37900;52.996;6.278;2023-08-21T07:50:56;4.70;;;2.77;;
51862;SDS011;37900;52.996;6.278;2023-08-21T07:53:22;3.78;;;1.73;;
51862;SDS011;37900;52.996;6.278;2023-08-21T07:58:15;4.13;;;1.98;;
51862;SDS011;37900;52.996;6.278;2023-08-21T08:00:40;4.55;;;1.55;;
51862;SDS011;37900;52.996;6.278;2023-08-21T08:03:07;3.00;;;1.55;;
51862;SDS011;37900;52.996;6.278;2023-08-21T08:05:33;3.53;;;1.48;;
51862;SDS011;37900;52.996;6.278;2023-08-21T08:07:59;2.47;;;1.27;;
51862;SDS011;37900;52.996;6.278;2023-08-21T08:10:25;3.58;;;1.20;;
51862;SDS011;37900;52.996;6.278;2023-08-21T08:12:51;2.40;;;1.42;;
51862;SDS011;37900;52.996;6.278;2023-08-21T08:15:18;3.20;;;1.52;;
51862;SDS011;37900;52.996;6.278;2023-08-21T08:17:44;4.45;;;1.33;;
51862;SDS011;37900;52.996;6.278;2023-08-21T08:20:17;3.47;;;1.90;;
51862;SDS011;37900;52.996;6.278;2023-08-21T08:22:43;3.40;;;1.63;;
51862;SDS011;37900;52.996;6.278;2023-08-21T08:25:09;3.75;;;1.55;;
51862;SDS011;37900;52.996;6.278;2023-08-21T08:27:35;2.00;;;1.50;;
51862;SDS011;37900;52.996;6.278;2023-08-21T08:30:01;3.45;;;1.30;;
51862;SDS011;37900;52.996;6.278;2023-08-21T08:34:54;2.10;;;1.58;;
51862;SDS011;37900;52.996;6.278;2023-08-21T08:37:19;2.85;;;1.67;;
51862;SDS011;37900;52.996;6.278;2023-08-21T08:39:46;3.42;;;1.45;;
51862;SDS011;37900;52.996;6.278;2023-08-21T08:42:12;2.50;;;1.52;;
51862;SDS011;37900;52.996;6.278;2023-08-21T08:44:39;3.75;;;1.67;;
51862;SDS011;37900;52.996;6.278;2023-08-21T08:47:06;3.20;;;1.50;;
51862;SDS011;37900;52.996;6.278;2023-08-21T08:49:33;2.67;;;1.33;;
51862;SDS011;37900;52.996;6.278;2023-08-21T08:51:59;2.35;;;1.50;;
51862;SDS011;37900;52.996;6.278;2023-08-21T08:54:25;2.43;;;1.67;;
51862;SDS011;37900;52.996;6.278;2023-08-21T08:56:52;3.95;;;1.85;;
51862;SDS011;37900;52.996;6.278;2023-08-21T08:59:18;3.80;;;1.77;;
51862;SDS011;37900;52.996;6.278;2023-08-21T09:01:45;2.33;;;1.20;;
51862;SDS011;37900;52.996;6.278;2023-08-21T09:04:11;3.20;;;1.60;;
51862;SDS011;37900;52.996;6.278;2023-08-21T09:06:37;3.20;;;1.60;;
51862;SDS011;37900;52.996;6.278;2023-08-21T09:09:03;3.43;;;1.70;;
51862;SDS011;37900;52.996;6.278;2023-08-21T09:11:29;1.77;;;1.50;;
51862;SDS011;37900;52.996;6.278;2023-08-21T09:13:58;1.90;;;1.50;;
51862;SDS011;37900;52.996;6.278;2023-08-21T09:16:24;3.60;;;1.48;;
51862;SDS011;37900;52.996;6.278;2023-08-21T09:18:54;6.43;;;1.63;;
51862;SDS011;37900;52.996;6.278;2023-08-21T09:21:22;4.20;;;1.60;;
51862;SDS011;37900;52.996;6.278;2023-08-21T09:23:56;2.20;;;1.40;;
51862;SDS011;37900;52.996;6.278;2023-08-21T09:26:29;2.47;;;1.42;;
51862;SDS011;37900;52.996;6.278;2023-08-21T09:29:00;1.95;;;1.48;;
51862;SDS011;37900;52.996;6.278;2023-08-21T09:31:29;2.33;;;1.42;;
51862;SDS011;37900;52.996;6.278;2023-08-21T09:33:57;2.50;;;1.73;;
51862;SDS011;37900;52.996;6.278;2023-08-21T09:36:30;2.60;;;1.60;;
51862;SDS011;37900;52.996;6.278;2023-08-21T09:38:56;2.40;;;1.50;;
51862;SDS011;37900;52.996;6.278;2023-08-21T09:41:22;3.10;;;1.30;;
51862;SDS011;37900;52.996;6.278;2023-08-21T09:43:48;2.63;;;1.50;;
51862;SDS011;37900;52.996;6.278;2023-08-21T09:46:23;3.60;;;1.60;;
51862;SDS011;37900;52.996;6.278;2023-08-21T09:48:51;2.63;;;1.70;;
51862;SDS011;37900;52.996;6.278;2023-08-21T09:51:18;2.22;;;1.50;;
51862;SDS011;37900;52.996;6.278;2023-08-21T09:53:44;3.90;;;1.98;;
51862;SDS011;37900;52.996;6.278;2023-08-21T09:56:10;6.07;;;1.77;;
51862;SDS011;37900;52.996;6.278;2023-08-21T09:58:36;4.20;;;1.60;;
51862;SDS011;37900;52.996;6.278;2023-08-21T10:01:06;3.63;;;1.83;;
51862;SDS011;37900;52.996;6.278;2023-08-21T10:03:39;4.43;;;1.70;;
51862;SDS011;37900;52.996;6.278;2023-08-21T10:06:05;2.28;;;1.38;;
51862;SDS011;37900;52.996;6.278;2023-08-21T10:08:36;3.50;;;1.90;;
51862;SDS011;37900;52.996;6.278;2023-08-21T10:11:04;1.80;;;1.40;;
51862;SDS011;37900;52.996;6.278;2023-08-21T10:13:32;3.78;;;2.22;;
51862;SDS011;37900;52.996;6.278;2023-08-21T10:16:00;3.90;;;1.58;;
51862;SDS011;37900;52.996;6.278;2023-08-21T10:18:30;3.40;;;1.90;;
51862;SDS011;37900;52.996;6.278;2023-08-21T10:21:10;4.55;;;1.83;;
51862;SDS011;37900;52.996;6.278;2023-08-21T10:23:38;2.78;;;1.65;;
51862;SDS011;37900;52.996;6.278;2023-08-21T10:26:05;4.88;;;2.00;;
51862;SDS011;37900;52.996;6.278;2023-08-21T10:29:05;3.72;;;1.77;;
51862;SDS011;37900;52.996;6.278;2023-08-21T10:31:31;4.57;;;2.17;;
51862;SDS011;37900;52.996;6.278;2023-08-21T10:34:04;6.55;;;2.50;;
51862;SDS011;37900;52.996;6.278;2023-08-21T10:36:40;4.03;;;1.95;;
51862;SDS011;37900;52.996;6.278;2023-08-21T10:39:25;2.78;;;1.50;;
51862;SDS011;37900;52.996;6.278;2023-08-21T10:49:57;4.07;;;1.95;;
51862;SDS011;37900;52.996;6.278;2023-08-21T10:55:01;4.80;;;2.05;;
51862;SDS011;37900;52.996;6.278;2023-08-21T10:57:30;4.40;;;2.22;;
51862;SDS011;37900;52.996;6.278;2023-08-21T11:02:39;4.50;;;1.85;;
51862;SDS011;37900;52.996;6.278;2023-08-21T11:05:06;5.03;;;2.22;;
51862;SDS011;37900;52.996;6.278;2023-08-21T11:07:43;3.10;;;1.77;;
51862;SDS011;37900;52.996;6.278;2023-08-21T11:10:14;4.85;;;2.22;;
51862;SDS011;37900;52.996;6.278;2023-08-21T11:12:48;5.10;;;2.08;;
51862;SDS011;37900;52.996;6.278;2023-08-21T11:15:20;4.03;;;1.90;;
51862;SDS011;37900;52.996;6.278;2023-08-21T11:20:19;4.10;;;2.13;;
51862;SDS011;37900;52.996;6.278;2023-08-21T11:22:45;4.00;;;1.70;;
51862;SDS011;37900;52.996;6.278;2023-08-21T11:25:11;2.65;;;1.63;;
51862;SDS011;37900;52.996;6.278;2023-08-21T11:27:37;2.30;;;1.38;;
51862;SDS011;37900;52.996;6.278;2023-08-21T11:30:03;2.80;;;1.80;;
51862;SDS011;37900;52.996;6.278;2023-08-21T11:32:29;3.72;;;2.03;;
51862;SDS011;37900;52.996;6.278;2023-08-21T11:34:55;3.10;;;2.00;;
51862;SDS011;37900;52.996;6.278;2023-08-21T11:37:22;4.05;;;1.98;;
51862;SDS011;37900;52.996;6.278;2023-08-21T11:42:25;3.78;;;2.10;;
51862;SDS011;37900;52.996;6.278;2023-08-21T11:44:54;5.00;;;1.73;;
51862;SDS011;37900;52.996;6.278;2023-08-21T11:47:21;2.90;;;1.57;;
51862;SDS011;37900;52.996;6.278;2023-08-21T11:52:21;6.00;;;2.10;;
51862;SDS011;37900;52.996;6.278;2023-08-21T11:54:49;8.68;;;2.15;;
51862;SDS011;37900;52.996;6.278;2023-08-21T11:57:17;7.10;;;2.13;;
51862;SDS011;37900;52.996;6.278;2023-08-21T11:59:43;5.07;;;2.10;;
51862;SDS011;37900;52.996;6.278;2023-08-21T12:05:14;4.72;;;2.03;;
51862;SDS011;37900;52.996;6.278;2023-08-21T12:07:39;6.93;;;2.40;;
51862;SDS011;37900;52.996;6.278;2023-08-21T12:10:05;4.68;;;1.92;;
51862;SDS011;37900;52.996;6.278;2023-08-21T12:12:31;4.35;;;2.22;;
51862;SDS011;37900;52.996;6.278;2023-08-21T12:14:56;3.08;;;1.60;;
51862;SDS011;37900;52.996;6.278;2023-08-21T12:17:22;4.90;;;2.20;;
51862;SDS011;37900;52.996;6.278;2023-08-21T12:19:48;2.60;;;1.90;;
51862;SDS011;37900;52.996;6.278;2023-08-21T12:22:13;5.07;;;2.00;;
51862;SDS011;37900;52.996;6.278;2023-08-21T12:24:39;4.15;;;2.03;;
51862;SDS011;37900;52.996;6.278;2023-08-21T12:27:05;5.70;;;2.05;;
51862;SDS011;37900;52.996;6.278;2023-08-21T12:29:32;5.10;;;2.05;;
51862;SDS011;37900;52.996;6.278;2023-08-21T12:31:57;4.22;;;2.00;;
51862;SDS011;37900;52.996;6.278;2023-08-21T12:34:23;4.38;;;1.83;;
51862;SDS011;37900;52.996;6.278;2023-08-21T12:36:52;1.85;;;1.42;;
51862;SDS011;37900;52.996;6.278;2023-08-21T12:39:18;3.58;;;2.00;;
51862;SDS011;37900;52.996;6.278;2023-08-21T12:41:43;5.82;;;1.98;;
51862;SDS011;37900;52.996;6.278;2023-08-21T12:44:09;3.97;;;2.17;;
51862;SDS011;37900;52.996;6.278;2023-08-21T12:46:35;4.43;;;1.50;;
51862;SDS011;37900;52.996;6.278;2023-08-21T12:49:01;4.35;;;1.88;;
51862;SDS011;37900;52.996;6.278;2023-08-21T12:51:27;3.17;;;2.00;;
51862;SDS011;37900;52.996;6.278;2023-08-21T12:53:54;4.20;;;1.90;;
51862;SDS011;37900;52.996;6.278;2023-08-21T12:56:20;3.13;;;1.70;;
51862;SDS011;37900;52.996;6.278;2023-08-21T12:58:46;4.53;;;2.10;;
51862;SDS011;37900;52.996;6.278;2023-08-21T13:01:12;2.88;;;1.67;;
51862;SDS011;37900;52.996;6.278;2023-08-21T13:03:38;3.45;;;1.80;;
51862;SDS011;37900;52.996;6.278;2023-08-21T13:06:04;3.28;;;1.52;;
51862;SDS011;37900;52.996;6.278;2023-08-21T13:08:30;3.92;;;1.60;;
51862;SDS011;37900;52.996;6.278;2023-08-21T13:10:56;3.22;;;1.90;;
51862;SDS011;37900;52.996;6.278;2023-08-21T13:13:21;3.92;;;1.75;;
51862;SDS011;37900;52.996;6.278;2023-08-21T13:15:47;1.85;;;1.35;;
51862;SDS011;37900;52.996;6.278;2023-08-21T13:18:13;3.38;;;1.60;;
51862;SDS011;37900;52.996;6.278;2023-08-21T13:20:40;2.33;;;1.50;;
51862;SDS011;37900;52.996;6.278;2023-08-21T13:23:09;2.55;;;1.40;;
51862;SDS011;37900;52.996;6.278;2023-08-21T13:25:35;3.78;;;1.55;;
51862;SDS011;37900;52.996;6.278;2023-08-21T13:28:00;1.85;;;1.33;;
51862;SDS011;37900;52.996;6.278;2023-08-21T13:30:28;2.67;;;1.48;;
51862;SDS011;37900;52.996;6.278;2023-08-21T13:32:54;3.08;;;1.58;;
51862;SDS011;37900;52.996;6.278;2023-08-21T13:35:20;3.20;;;1.50;;
51862;SDS011;37900;52.996;6.278;2023-08-21T13:37:47;4.72;;;1.85;;
51862;SDS011;37900;52.996;6.278;2023-08-21T13:40:13;3.05;;;1.30;;
51862;SDS011;37900;52.996;6.278;2023-08-21T13:42:42;5.68;;;1.70;;
51862;SDS011;37900;52.996;6.278;2023-08-21T13:45:09;2.72;;;1.40;;
51862;SDS011;37900;52.996;6.278;2023-08-21T13:47:46;3.20;;;1.58;;
51862;SDS011;37900;52.996;6.278;2023-08-21T13:50:13;2.47;;;1.48;;
51862;SDS011;37900;52.996;6.278;2023-08-21T13:52:40;2.08;;;1.38;;
51862;SDS011;37900;52.996;6.278;2023-08-21T13:55:07;1.42;;;1.17;;
51862;SDS011;37900;52.996;6.278;2023-08-21T13:57:34;2.38;;;1.40;;
51862;SDS011;37900;52.996;6.278;2023-08-21T14:00:00;2.17;;;1.80;;
51862;SDS011;37900;52.996;6.278;2023-08-21T14:02:27;2.25;;;1.27;;
51862;SDS011;37900;52.996;6.278;2023-08-21T14:04:52;2.10;;;1.30;;
51862;SDS011;37900;52.996;6.278;2023-08-21T14:07:18;2.25;;;1.30;;
51862;SDS011;37900;52.996;6.278;2023-08-21T14:09:44;2.53;;;1.40;;
51862;SDS011;37900;52.996;6.278;2023-08-21T14:12:09;4.03;;;1.70;;
51862;SDS011;37900;52.996;6.278;2023-08-21T14:14:35;2.38;;;1.45;;
51862;SDS011;37900;52.996;6.278;2023-08-21T14:19:29;2.50;;;1.60;;
51862;SDS011;37900;52.996;6.278;2023-08-21T14:21:55;4.30;;;1.47;;
51862;SDS011;37900;52.996;6.278;2023-08-21T14:24:22;3.28;;;1.60;;
51862;SDS011;37900;52.996;6.278;2023-08-21T14:26:48;2.75;;;1.60;;
51862;SDS011;37900;52.996;6.278;2023-08-21T14:29:13;2.78;;;1.23;;
51862;SDS011;37900;52.996;6.278;2023-08-21T14:31:39;2.00;;;1.30;;
51862;SDS011;37900;52.996;6.278;2023-08-21T14:34:05;3.88;;;1.92;;
51862;SDS011;37900;52.996;6.278;2023-08-21T14:36:31;2.08;;;1.25;;
51862;SDS011;37900;52.996;6.278;2023-08-21T14:38:56;2.72;;;1.27;;
51862;SDS011;37900;52.996;6.278;2023-08-21T14:41:22;3.67;;;1.50;;
51862;SDS011;37900;52.996;6.278;2023-08-21T14:43:48;3.63;;;1.38;;
51862;SDS011;37900;52.996;6.278;2023-08-21T14:46:14;2.08;;;1.48;;
51862;SDS011;37900;52.996;6.278;2023-08-21T14:48:40;2.03;;;1.38;;
51862;SDS011;37900;52.996;6.278;2023-08-21T14:51:06;1.60;;;1.17;;
51862;SDS011;37900;52.996;6.278;2023-08-21T14:53:31;3.53;;;1.40;;
51862;SDS011;37900;52.996;6.278;2023-08-21T14:55:57;2.47;;;1.25;;
51862;SDS011;37900;52.996;6.278;2023-08-21T14:58:23;1.77;;;1.40;;
51862;SDS011;37900;52.996;6.278;2023-08-21T15:00:49;3.15;;;1.33;;
51862;SDS011;37900;52.996;6.278;2023-08-21T15:03:19;3.47;;;1.30;;
51862;SDS011;37900;52.996;6.278;2023-08-21T15:05:45;3.35;;;1.50;;
51862;SDS011;37900;52.996;6.278;2023-08-21T15:08:10;2.13;;;1.48;;
51862;SDS011;37900;52.996;6.278;2023-08-21T15:10:36;3.10;;;1.65;;
51862;SDS011;37900;52.996;6.278;2023-08-21T15:13:02;1.50;;;1.17;;
51862;SDS011;37900;52.996;6.278;2023-08-21T15:15:27;1.70;;;0.90;;
51862;SDS011;37900;52.996;6.278;2023-08-21T15:17:53;2.72;;;1.10;;
51862;SDS011;37900;52.996;6.278;2023-08-21T15:20:19;1.50;;;1.27;;
51862;SDS011;37900;52.996;6.278;2023-08-21T15:22:46;1.48;;;1.17;;